sensor_id;sensor_type;location;lat;lon;timestamp;temperature;humidity
2929;DHT22;1474;51.460;7.150;2022-08-19T00:00:48;19.60;99.90
2929;DHT22;1474;51.460;7.150;2022-08-19T00:03:15;19.60;99.90
2929;DHT22;1474;51.460;7.150;2022-08-19T00:05:41;19.60;99.90
2929;DHT22;1474;51.460;7.150;2022-08-19T00:08:07;19.60;99.90
2929;DHT22;1474;51.460;7.150;2022-08-19T00:10:33;19.50;99.90
2929;DHT22;1474;51.460;7.150;2022-08-19T00:12:59;19.50;99.90
2929;DHT22;1474;51.460;7.150;2022-08-19T00:15:25;19.50;99.90
2929;DHT22;1474;51.460;7.150;2022-08-19T00:17:50;19.50;99.90
2929;DHT22;1474;51.460;7.150;2022-08-19T00:20:19;19.50;99.90
2929;DHT22;1474;51.460;7.150;2022-08-19T00:22:45;19.40;99.90
2929;DHT22;1474;51.460;7.150;2022-08-19T00:25:12;19.40;99.90
2929;DHT22;1474;51.460;7.150;2022-08-19T00:27:39;19.40;99.90
2929;DHT22;1474;51.460;7.150;2022-08-19T00:30:06;19.30;99.90
2929;DHT22;1474;51.460;7.150;2022-08-19T00:32:32;19.30;99.90
2929;DHT22;1474;51.460;7.150;2022-08-19T00:35:00;19.30;99.90
2929;DHT22;1474;51.460;7.150;2022-08-19T00:37:26;19.30;99.90
2929;DHT22;1474;51.460;7.150;2022-08-19T00:39:52;19.20;99.90
2929;DHT22;1474;51.460;7.150;2022-08-19T00:42:20;19.20;99.90
2929;DHT22;1474;51.460;7.150;2022-08-19T00:44:46;19.20;99.90
2929;DHT22;1474;51.460;7.150;2022-08-19T00:47:13;19.20;99.90
2929;DHT22;1474;51.460;7.150;2022-08-19T00:49:52;19.20;99.90
2929;DHT22;1474;51.460;7.150;2022-08-19T00:52:23;19.20;99.90
2929;DHT22;1474;51.460;7.150;2022-08-19T00:54:49;19.10;99.90
2929;DHT22;1474;51.460;7.150;2022-08-19T00:57:19;19.10;99.90
2929;DHT22;1474;51.460;7.150;2022-08-19T00:59:51;19.10;99.90
2929;DHT22;1474;51.460;7.150;2022-08-19T01:02:18;19.10;99.90
2929;DHT22;1474;51.460;7.150;2022-08-19T01:04:43;19.00;99.90
2929;DHT22;1474;51.460;7.150;2022-08-19T01:07:09;19.00;99.90
2929;DHT22;1474;51.460;7.150;2022-08-19T01:09:35;18.90;99.90
2929;DHT22;1474;51.460;7.150;2022-08-19T01:12:01;18.90;99.90
2929;DHT22;1474;51.460;7.150;2022-08-19T01:14:27;18.90;99.90
2929;DHT22;1474;51.460;7.150;2022-08-19T01:16:55;18.90;99.90
2929;DHT22;1474;51.460;7.150;2022-08-19T01:19:27;18.90;99.90
2929;DHT22;1474;51.460;7.150;2022-08-19T01:22:16;18.90;99.90
2929;DHT22;1474;51.460;7.150;2022-08-19T01:24:44;18.90;99.90
2929;DHT22;1474;51.460;7.150;2022-08-19T01:27:09;18.80;99.90
2929;DHT22;1474;51.460;7.150;2022-08-19T01:29:39;18.80;99.90
2929;DHT22;1474;51.460;7.150;2022-08-19T01:32:05;18.80;99.90
2929;DHT22;1474;51.460;7.150;2022-08-19T01:34:31;18.80;99.90
2929;DHT22;1474;51.460;7.150;2022-08-19T01:36:59;18.70;99.90
2929;DHT22;1474;51.460;7.150;2022-08-19T01:39:27;18.80;99.90
2929;DHT22;1474;51.460;7.150;2022-08-19T01:41:53;18.70;99.90
2929;DHT22;1474;51.460;7.150;2022-08-19T01:44:20;18.70;99.90
2929;DHT22;1474;51.460;7.150;2022-08-19T01:46:49;18.70;99.90
2929;DHT22;1474;51.460;7.150;2022-08-19T01:49:18;18.60;99.90
2929;DHT22;1474;51.460;7.150;2022-08-19T01:51:44;18.60;99.90
2929;DHT22;1474;51.460;7.150;2022-08-19T01:54:12;18.60;99.90
2929;DHT22;1474;51.460;7.150;2022-08-19T01:56:38;18.60;99.90
2929;DHT22;1474;51.460;7.150;2022-08-19T01:59:10;18.60;99.90
2929;DHT22;1474;51.460;7.150;2022-08-19T02:01:37;18.50;99.90
2929;DHT22;1474;51.460;7.150;2022-08-19T02:04:03;18.50;99.90
2929;DHT22;1474;51.460;7.150;2022-08-19T02:06:29;18.50;99.90
2929;DHT22;1474;51.460;7.150;2022-08-19T02:08:55;18.50;99.90
2929;DHT22;1474;51.460;7.150;2022-08-19T02:11:23;18.50;99.90
2929;DHT22;1474;51.460;7.150;2022-08-19T02:13:52;18.50;99.90
2929;DHT22;1474;51.460;7.150;2022-08-19T02:16:19;18.40;99.90
2929;DHT22;1474;51.460;7.150;2022-08-19T02:18:46;18.40;99.90
2929;DHT22;1474;51.460;7.150;2022-08-19T02:21:15;18.40;99.90
2929;DHT22;1474;51.460;7.150;2022-08-19T02:23:42;18.40;99.90
2929;DHT22;1474;51.460;7.150;2022-08-19T02:26:08;18.30;99.90
2929;DHT22;1474;51.460;7.150;2022-08-19T02:28:34;18.30;99.90
2929;DHT22;1474;51.460;7.150;2022-08-19T02:31:00;18.30;99.90
2929;DHT22;1474;51.460;7.150;2022-08-19T02:33:26;18.30;99.90
2929;DHT22;1474;51.460;7.150;2022-08-19T02:35:52;18.30;99.90
2929;DHT22;1474;51.460;7.150;2022-08-19T02:38:18;18.30;99.90
2929;DHT22;1474;51.460;7.150;2022-08-19T02:40:56;18.30;99.90
2929;DHT22;1474;51.460;7.150;2022-08-19T02:43:23;18.20;99.90
2929;DHT22;1474;51.460;7.150;2022-08-19T02:45:50;18.20;99.90
2929;DHT22;1474;51.460;7.150;2022-08-19T02:48:21;18.20;99.90
2929;DHT22;1474;51.460;7.150;2022-08-19T02:50:49;18.20;99.90
2929;DHT22;1474;51.460;7.150;2022-08-19T02:53:21;18.20;99.90
2929;DHT22;1474;51.460;7.150;2022-08-19T02:55:49;18.20;99.90
2929;DHT22;1474;51.460;7.150;2022-08-19T02:58:15;18.20;99.90
2929;DHT22;1474;51.460;7.150;2022-08-19T03:00:46;18.10;99.90
2929;DHT22;1474;51.460;7.150;2022-08-19T03:03:13;18.10;99.90
2929;DHT22;1474;51.460;7.150;2022-08-19T03:05:39;18.10;99.90
2929;DHT22;1474;51.460;7.150;2022-08-19T03:08:05;18.00;99.90
2929;DHT22;1474;51.460;7.150;2022-08-19T03:10:32;18.00;99.90
2929;DHT22;1474;51.460;7.150;2022-08-19T03:12:57;18.00;99.90
2929;DHT22;1474;51.460;7.150;2022-08-19T03:15:23;18.00;99.90
2929;DHT22;1474;51.460;7.150;2022-08-19T03:17:49;18.00;99.90
2929;DHT22;1474;51.460;7.150;2022-08-19T03:20:15;18.00;99.90
2929;DHT22;1474;51.460;7.150;2022-08-19T03:22:40;18.00;99.90
2929;DHT22;1474;51.460;7.150;2022-08-19T03:25:06;17.90;99.90
2929;DHT22;1474;51.460;7.150;2022-08-19T03:27:32;17.90;99.90
2929;DHT22;1474;51.460;7.150;2022-08-19T03:29:58;17.80;99.90
2929;DHT22;1474;51.460;7.150;2022-08-19T03:32:24;17.90;99.90
2929;DHT22;1474;51.460;7.150;2022-08-19T03:34:50;17.90;99.90
2929;DHT22;1474;51.460;7.150;2022-08-19T03:37:16;17.90;99.90
2929;DHT22;1474;51.460;7.150;2022-08-19T03:39:42;17.80;99.90
2929;DHT22;1474;51.460;7.150;2022-08-19T03:42:09;17.80;99.90
2929;DHT22;1474;51.460;7.150;2022-08-19T03:44:34;17.80;99.90
2929;DHT22;1474;51.460;7.150;2022-08-19T03:47:03;17.80;99.90
2929;DHT22;1474;51.460;7.150;2022-08-19T03:49:31;17.80;99.90
2929;DHT22;1474;51.460;7.150;2022-08-19T03:51:58;17.70;99.90
2929;DHT22;1474;51.460;7.150;2022-08-19T03:54:26;17.60;99.90
2929;DHT22;1474;51.460;7.150;2022-08-19T03:56:54;17.70;99.90
2929;DHT22;1474;51.460;7.150;2022-08-19T03:59:29;17.70;99.90
2929;DHT22;1474;51.460;7.150;2022-08-19T04:01:57;17.70;99.90
2929;DHT22;1474;51.460;7.150;2022-08-19T04:04:24;17.70;99.90
2929;DHT22;1474;51.460;7.150;2022-08-19T04:06:50;17.70;99.90
2929;DHT22;1474;51.460;7.150;2022-08-19T04:09:18;17.70;99.90
2929;DHT22;1474;51.460;7.150;2022-08-19T04:11:47;17.70;99.90
2929;DHT22;1474;51.460;7.150;2022-08-19T04:14:16;17.70;99.90
2929;DHT22;1474;51.460;7.150;2022-08-19T04:16:42;17.60;99.90
2929;DHT22;1474;51.460;7.150;2022-08-19T04:19:09;17.60;99.90
2929;DHT22;1474;51.460;7.150;2022-08-19T04:21:36;17.60;99.90
2929;DHT22;1474;51.460;7.150;2022-08-19T04:24:02;17.60;99.90
2929;DHT22;1474;51.460;7.150;2022-08-19T04:26:31;17.60;99.90
2929;DHT22;1474;51.460;7.150;2022-08-19T04:29:00;17.60;99.90
2929;DHT22;1474;51.460;7.150;2022-08-19T04:31:30;17.60;99.90
2929;DHT22;1474;51.460;7.150;2022-08-19T04:33:58;17.70;99.90
2929;DHT22;1474;51.460;7.150;2022-08-19T04:36:27;17.60;99.90
2929;DHT22;1474;51.460;7.150;2022-08-19T04:38:58;17.70;99.90
2929;DHT22;1474;51.460;7.150;2022-08-19T04:41:25;17.70;99.90
2929;DHT22;1474;51.460;7.150;2022-08-19T04:44:10;17.70;99.90
2929;DHT22;1474;51.460;7.150;2022-08-19T04:46:36;17.80;99.90
2929;DHT22;1474;51.460;7.150;2022-08-19T04:49:04;17.80;99.90
2929;DHT22;1474;51.460;7.150;2022-08-19T04:51:31;17.90;99.90
2929;DHT22;1474;51.460;7.150;2022-08-19T04:53:57;17.80;99.90
2929;DHT22;1474;51.460;7.150;2022-08-19T04:56:24;17.90;99.90
2929;DHT22;1474;51.460;7.150;2022-08-19T04:58:52;17.90;99.90
2929;DHT22;1474;51.460;7.150;2022-08-19T05:01:24;17.90;99.90
2929;DHT22;1474;51.460;7.150;2022-08-19T05:03:50;18.00;99.90
2929;DHT22;1474;51.460;7.150;2022-08-19T05:06:19;18.00;99.90
2929;DHT22;1474;51.460;7.150;2022-08-19T05:08:45;18.00;99.90
2929;DHT22;1474;51.460;7.150;2022-08-19T05:11:22;18.10;99.90
2929;DHT22;1474;51.460;7.150;2022-08-19T05:13:48;18.10;99.90
2929;DHT22;1474;51.460;7.150;2022-08-19T05:16:16;18.10;99.90
2929;DHT22;1474;51.460;7.150;2022-08-19T05:18:43;18.10;99.90
2929;DHT22;1474;51.460;7.150;2022-08-19T05:21:28;18.20;99.90
2929;DHT22;1474;51.460;7.150;2022-08-19T05:24:13;18.20;99.90
2929;DHT22;1474;51.460;7.150;2022-08-19T05:26:42;18.30;99.90
2929;DHT22;1474;51.460;7.150;2022-08-19T05:29:08;18.30;99.90
2929;DHT22;1474;51.460;7.150;2022-08-19T05:31:34;18.40;99.90
2929;DHT22;1474;51.460;7.150;2022-08-19T05:34:01;18.40;99.90
2929;DHT22;1474;51.460;7.150;2022-08-19T05:36:28;18.50;99.90
2929;DHT22;1474;51.460;7.150;2022-08-19T05:38:58;18.60;99.90
2929;DHT22;1474;51.460;7.150;2022-08-19T05:41:23;18.60;99.90
2929;DHT22;1474;51.460;7.150;2022-08-19T05:44:02;18.70;99.90
2929;DHT22;1474;51.460;7.150;2022-08-19T05:46:28;18.80;99.90
2929;DHT22;1474;51.460;7.150;2022-08-19T05:48:55;18.90;99.90
2929;DHT22;1474;51.460;7.150;2022-08-19T05:51:22;19.10;99.90
2929;DHT22;1474;51.460;7.150;2022-08-19T05:53:48;19.10;99.90
2929;DHT22;1474;51.460;7.150;2022-08-19T05:56:16;19.20;99.90
2929;DHT22;1474;51.460;7.150;2022-08-19T05:58:44;19.20;99.90
2929;DHT22;1474;51.460;7.150;2022-08-19T06:01:16;19.30;99.90
2929;DHT22;1474;51.460;7.150;2022-08-19T06:03:42;19.30;99.90
2929;DHT22;1474;51.460;7.150;2022-08-19T06:06:10;19.40;99.90
2929;DHT22;1474;51.460;7.150;2022-08-19T06:08:37;19.50;99.90
2929;DHT22;1474;51.460;7.150;2022-08-19T06:11:23;19.60;99.90
2929;DHT22;1474;51.460;7.150;2022-08-19T06:13:52;19.60;99.90
2929;DHT22;1474;51.460;7.150;2022-08-19T06:16:19;19.70;99.90
2929;DHT22;1474;51.460;7.150;2022-08-19T06:18:55;19.80;99.90
2929;DHT22;1474;51.460;7.150;2022-08-19T06:21:26;19.80;99.90
2929;DHT22;1474;51.460;7.150;2022-08-19T06:23:53;19.80;99.90
2929;DHT22;1474;51.460;7.150;2022-08-19T06:26:19;19.90;99.90
2929;DHT22;1474;51.460;7.150;2022-08-19T06:28:46;19.90;99.90
2929;DHT22;1474;51.460;7.150;2022-08-19T06:31:18;20.00;99.90
2929;DHT22;1474;51.460;7.150;2022-08-19T06:33:46;20.00;99.90
2929;DHT22;1474;51.460;7.150;2022-08-19T06:36:33;20.10;99.90
2929;DHT22;1474;51.460;7.150;2022-08-19T06:39:02;20.10;99.90
2929;DHT22;1474;51.460;7.150;2022-08-19T06:41:29;20.10;99.90
2929;DHT22;1474;51.460;7.150;2022-08-19T06:43:56;20.20;99.90
2929;DHT22;1474;51.460;7.150;2022-08-19T06:46:23;20.20;99.90
2929;DHT22;1474;51.460;7.150;2022-08-19T06:48:49;20.30;99.90
2929;DHT22;1474;51.460;7.150;2022-08-19T06:51:16;20.40;99.90
2929;DHT22;1474;51.460;7.150;2022-08-19T06:53:45;20.40;99.90
2929;DHT22;1474;51.460;7.150;2022-08-19T06:56:16;20.40;99.90
2929;DHT22;1474;51.460;7.150;2022-08-19T06:58:43;20.40;99.90
2929;DHT22;1474;51.460;7.150;2022-08-19T07:01:09;20.40;99.90
2929;DHT22;1474;51.460;7.150;2022-08-19T07:03:37;20.40;99.90
2929;DHT22;1474;51.460;7.150;2022-08-19T07:06:10;20.40;99.90
2929;DHT22;1474;51.460;7.150;2022-08-19T07:08:38;20.40;99.90
2929;DHT22;1474;51.460;7.150;2022-08-19T07:11:11;20.40;99.90
2929;DHT22;1474;51.460;7.150;2022-08-19T07:13:39;20.50;99.90
2929;DHT22;1474;51.460;7.150;2022-08-19T07:16:07;20.50;99.90
2929;DHT22;1474;51.460;7.150;2022-08-19T07:18:33;20.50;99.90
2929;DHT22;1474;51.460;7.150;2022-08-19T07:21:14;20.60;99.90
2929;DHT22;1474;51.460;7.150;2022-08-19T07:23:40;20.60;99.90
2929;DHT22;1474;51.460;7.150;2022-08-19T07:26:22;20.70;99.90
2929;DHT22;1474;51.460;7.150;2022-08-19T07:28:49;20.80;99.90
2929;DHT22;1474;51.460;7.150;2022-08-19T07:31:19;20.90;99.90
2929;DHT22;1474;51.460;7.150;2022-08-19T07:33:46;20.90;99.90
2929;DHT22;1474;51.460;7.150;2022-08-19T07:36:14;21.00;99.90
2929;DHT22;1474;51.460;7.150;2022-08-19T07:38:43;21.10;99.90
2929;DHT22;1474;51.460;7.150;2022-08-19T07:41:11;21.20;99.90
2929;DHT22;1474;51.460;7.150;2022-08-19T07:43:37;21.40;99.90
2929;DHT22;1474;51.460;7.150;2022-08-19T07:46:03;21.50;99.90
2929;DHT22;1474;51.460;7.150;2022-08-19T07:48:29;21.60;99.90
2929;DHT22;1474;51.460;7.150;2022-08-19T07:50:57;21.60;99.90
2929;DHT22;1474;51.460;7.150;2022-08-19T07:53:25;21.80;99.90
2929;DHT22;1474;51.460;7.150;2022-08-19T07:55:51;21.90;99.90
2929;DHT22;1474;51.460;7.150;2022-08-19T07:58:20;21.90;99.90
2929;DHT22;1474;51.460;7.150;2022-08-19T08:00:48;21.90;99.90
2929;DHT22;1474;51.460;7.150;2022-08-19T08:03:17;22.00;99.90
2929;DHT22;1474;51.460;7.150;2022-08-19T08:05:43;22.00;99.90
2929;DHT22;1474;51.460;7.150;2022-08-19T08:08:27;22.00;99.90
2929;DHT22;1474;51.460;7.150;2022-08-19T08:11:05;22.20;99.90
2929;DHT22;1474;51.460;7.150;2022-08-19T08:13:32;22.30;99.90
2929;DHT22;1474;51.460;7.150;2022-08-19T08:16:01;22.40;99.90
2929;DHT22;1474;51.460;7.150;2022-08-19T08:18:28;22.50;99.90
2929;DHT22;1474;51.460;7.150;2022-08-19T08:20:54;22.60;99.90
2929;DHT22;1474;51.460;7.150;2022-08-19T08:23:20;22.80;99.90
2929;DHT22;1474;51.460;7.150;2022-08-19T08:25:51;22.80;99.90
2929;DHT22;1474;51.460;7.150;2022-08-19T08:28:17;23.00;99.90
2929;DHT22;1474;51.460;7.150;2022-08-19T08:30:43;23.00;99.90
2929;DHT22;1474;51.460;7.150;2022-08-19T08:33:11;23.00;99.90
2929;DHT22;1474;51.460;7.150;2022-08-19T08:35:36;23.10;99.90
2929;DHT22;1474;51.460;7.150;2022-08-19T08:38:03;23.10;99.90
2929;DHT22;1474;51.460;7.150;2022-08-19T08:40:59;23.20;99.90
2929;DHT22;1474;51.460;7.150;2022-08-19T08:43:39;23.20;99.90
2929;DHT22;1474;51.460;7.150;2022-08-19T08:46:39;23.20;99.90
2929;DHT22;1474;51.460;7.150;2022-08-19T08:52:15;23.40;99.90
2929;DHT22;1474;51.460;7.150;2022-08-19T08:54:44;23.60;99.90
2929;DHT22;1474;51.460;7.150;2022-08-19T08:57:15;23.60;99.90
2929;DHT22;1474;51.460;7.150;2022-08-19T08:59:46;23.80;99.90
2929;DHT22;1474;51.460;7.150;2022-08-19T09:02:17;24.10;99.90
2929;DHT22;1474;51.460;7.150;2022-08-19T09:04:43;24.20;99.90
2929;DHT22;1474;51.460;7.150;2022-08-19T09:09:42;24.40;99.90
2929;DHT22;1474;51.460;7.150;2022-08-19T09:12:43;24.50;99.90
2929;DHT22;1474;51.460;7.150;2022-08-19T09:15:14;24.50;99.90
2929;DHT22;1474;51.460;7.150;2022-08-19T09:17:41;24.50;99.90
2929;DHT22;1474;51.460;7.150;2022-08-19T09:20:21;24.50;99.90
2929;DHT22;1474;51.460;7.150;2022-08-19T09:22:48;24.70;99.90
2929;DHT22;1474;51.460;7.150;2022-08-19T09:25:20;24.90;99.90
2929;DHT22;1474;51.460;7.150;2022-08-19T09:27:48;25.00;99.90
2929;DHT22;1474;51.460;7.150;2022-08-19T09:30:20;25.10;99.90
2929;DHT22;1474;51.460;7.150;2022-08-19T09:32:47;25.10;99.90
2929;DHT22;1474;51.460;7.150;2022-08-19T09:35:14;25.20;99.90
2929;DHT22;1474;51.460;7.150;2022-08-19T09:37:41;25.10;99.90
2929;DHT22;1474;51.460;7.150;2022-08-19T09:40:08;24.90;99.90
2929;DHT22;1474;51.460;7.150;2022-08-19T09:42:34;24.90;99.90
2929;DHT22;1474;51.460;7.150;2022-08-19T09:45:00;24.80;99.90
2929;DHT22;1474;51.460;7.150;2022-08-19T09:47:26;24.80;99.90
2929;DHT22;1474;51.460;7.150;2022-08-19T09:49:51;24.80;99.90
2929;DHT22;1474;51.460;7.150;2022-08-19T09:52:17;24.70;99.90
2929;DHT22;1474;51.460;7.150;2022-08-19T09:54:43;24.70;99.90
2929;DHT22;1474;51.460;7.150;2022-08-19T09:57:09;24.80;99.90
2929;DHT22;1474;51.460;7.150;2022-08-19T09:59:35;25.00;99.90
2929;DHT22;1474;51.460;7.150;2022-08-19T10:02:01;25.20;99.90
2929;DHT22;1474;51.460;7.150;2022-08-19T10:04:26;25.30;99.90
2929;DHT22;1474;51.460;7.150;2022-08-19T10:07:12;25.30;99.90
2929;DHT22;1474;51.460;7.150;2022-08-19T10:09:38;25.30;99.80
2929;DHT22;1474;51.460;7.150;2022-08-19T10:12:06;25.30;99.50
2929;DHT22;1474;51.460;7.150;2022-08-19T10:14:33;25.30;99.90
2929;DHT22;1474;51.460;7.150;2022-08-19T10:16:59;25.60;98.90
2929;DHT22;1474;51.460;7.150;2022-08-19T10:19:26;25.90;99.40
2929;DHT22;1474;51.460;7.150;2022-08-19T10:21:55;26.00;99.20
2929;DHT22;1474;51.460;7.150;2022-08-19T10:24:21;26.20;97.80
2929;DHT22;1474;51.460;7.150;2022-08-19T10:26:49;26.40;97.90
2929;DHT22;1474;51.460;7.150;2022-08-19T10:29:15;26.50;97.40
2929;DHT22;1474;51.460;7.150;2022-08-19T10:31:41;26.60;98.00
2929;DHT22;1474;51.460;7.150;2022-08-19T10:34:07;26.80;97.40
2929;DHT22;1474;51.460;7.150;2022-08-19T10:36:36;27.10;97.70
2929;DHT22;1474;51.460;7.150;2022-08-19T10:39:08;27.20;96.20
2929;DHT22;1474;51.460;7.150;2022-08-19T10:41:37;27.10;96.80
2929;DHT22;1474;51.460;7.150;2022-08-19T10:44:06;27.20;96.30
2929;DHT22;1474;51.460;7.150;2022-08-19T10:46:35;27.20;96.50
2929;DHT22;1474;51.460;7.150;2022-08-19T10:49:02;27.30;96.00
2929;DHT22;1474;51.460;7.150;2022-08-19T10:51:29;27.40;95.60
2929;DHT22;1474;51.460;7.150;2022-08-19T10:54:13;27.50;95.70
2929;DHT22;1474;51.460;7.150;2022-08-19T10:56:39;27.50;95.30
2929;DHT22;1474;51.460;7.150;2022-08-19T10:59:28;27.50;95.60
2929;DHT22;1474;51.460;7.150;2022-08-19T11:01:59;27.10;95.10
2929;DHT22;1474;51.460;7.150;2022-08-19T11:04:25;27.10;94.60
2929;DHT22;1474;51.460;7.150;2022-08-19T11:06:51;26.80;95.10
2929;DHT22;1474;51.460;7.150;2022-08-19T11:09:22;26.60;95.10
2929;DHT22;1474;51.460;7.150;2022-08-19T11:11:53;26.40;95.60
2929;DHT22;1474;51.460;7.150;2022-08-19T11:14:20;26.30;95.80
2929;DHT22;1474;51.460;7.150;2022-08-19T11:16:48;26.10;95.60
2929;DHT22;1474;51.460;7.150;2022-08-19T11:19:14;26.00;96.70
2929;DHT22;1474;51.460;7.150;2022-08-19T11:21:44;26.10;95.10
2929;DHT22;1474;51.460;7.150;2022-08-19T11:24:13;26.10;95.30
2929;DHT22;1474;51.460;7.150;2022-08-19T11:26:40;26.20;95.10
2929;DHT22;1474;51.460;7.150;2022-08-19T11:29:07;26.50;95.70
2929;DHT22;1474;51.460;7.150;2022-08-19T11:31:37;26.80;95.20
2929;DHT22;1474;51.460;7.150;2022-08-19T11:34:06;27.10;94.10
2929;DHT22;1474;51.460;7.150;2022-08-19T11:36:33;27.30;94.70
2929;DHT22;1474;51.460;7.150;2022-08-19T11:39:00;27.50;94.60
2929;DHT22;1474;51.460;7.150;2022-08-19T11:41:26;27.60;94.10
2929;DHT22;1474;51.460;7.150;2022-08-19T11:43:52;27.70;94.70
2929;DHT22;1474;51.460;7.150;2022-08-19T11:46:23;27.80;94.10
2929;DHT22;1474;51.460;7.150;2022-08-19T11:48:49;27.70;94.00
2929;DHT22;1474;51.460;7.150;2022-08-19T11:51:20;27.70;93.90
2929;DHT22;1474;51.460;7.150;2022-08-19T11:53:47;27.30;93.40
2929;DHT22;1474;51.460;7.150;2022-08-19T11:56:12;27.20;93.90
2929;DHT22;1474;51.460;7.150;2022-08-19T11:58:39;27.30;92.70
2929;DHT22;1474;51.460;7.150;2022-08-19T12:01:07;27.40;93.60
2929;DHT22;1474;51.460;7.150;2022-08-19T12:03:34;27.70;92.40
2929;DHT22;1474;51.460;7.150;2022-08-19T12:06:07;27.90;92.50
2929;DHT22;1474;51.460;7.150;2022-08-19T12:08:33;28.00;92.00
2929;DHT22;1474;51.460;7.150;2022-08-19T12:10:59;28.00;92.00
2929;DHT22;1474;51.460;7.150;2022-08-19T12:13:28;28.00;91.90
2929;DHT22;1474;51.460;7.150;2022-08-19T12:15:54;27.90;90.90
2929;DHT22;1474;51.460;7.150;2022-08-19T12:18:20;28.00;91.50
2929;DHT22;1474;51.460;7.150;2022-08-19T12:20:45;28.10;90.90
2929;DHT22;1474;51.460;7.150;2022-08-19T12:23:13;28.10;91.10
2929;DHT22;1474;51.460;7.150;2022-08-19T12:25:44;28.20;91.80
2929;DHT22;1474;51.460;7.150;2022-08-19T12:28:18;28.40;90.20
2929;DHT22;1474;51.460;7.150;2022-08-19T12:30:44;28.20;90.20
2929;DHT22;1474;51.460;7.150;2022-08-19T12:33:10;28.00;90.80
2929;DHT22;1474;51.460;7.150;2022-08-19T12:35:40;27.70;91.00
2929;DHT22;1474;51.460;7.150;2022-08-19T12:38:06;27.80;91.40
2929;DHT22;1474;51.460;7.150;2022-08-19T12:40:32;28.00;91.20
2929;DHT22;1474;51.460;7.150;2022-08-19T12:42:57;28.20;91.20
2929;DHT22;1474;51.460;7.150;2022-08-19T12:45:23;28.60;91.00
2929;DHT22;1474;51.460;7.150;2022-08-19T12:47:49;28.70;90.40
2929;DHT22;1474;51.460;7.150;2022-08-19T12:50:15;28.80;90.60
2929;DHT22;1474;51.460;7.150;2022-08-19T12:52:40;29.00;90.30
2929;DHT22;1474;51.460;7.150;2022-08-19T12:55:08;29.00;89.00
2929;DHT22;1474;51.460;7.150;2022-08-19T12:57:34;29.00;86.90
2929;DHT22;1474;51.460;7.150;2022-08-19T13:02:31;29.30;86.60
2929;DHT22;1474;51.460;7.150;2022-08-19T13:04:57;29.10;87.60
2929;DHT22;1474;51.460;7.150;2022-08-19T13:07:23;29.10;87.50
2929;DHT22;1474;51.460;7.150;2022-08-19T13:09:52;29.20;87.90
2929;DHT22;1474;51.460;7.150;2022-08-19T13:12:18;29.20;88.60
2929;DHT22;1474;51.460;7.150;2022-08-19T13:14:45;29.40;87.50
2929;DHT22;1474;51.460;7.150;2022-08-19T13:17:15;29.50;88.90
2929;DHT22;1474;51.460;7.150;2022-08-19T13:19:41;29.40;86.80
2929;DHT22;1474;51.460;7.150;2022-08-19T13:22:07;29.20;86.40
2929;DHT22;1474;51.460;7.150;2022-08-19T13:24:32;29.30;85.30
2929;DHT22;1474;51.460;7.150;2022-08-19T13:26:59;29.40;84.50
2929;DHT22;1474;51.460;7.150;2022-08-19T13:29:25;29.40;85.40
2929;DHT22;1474;51.460;7.150;2022-08-19T13:32:09;29.50;86.60
2929;DHT22;1474;51.460;7.150;2022-08-19T13:34:54;29.70;84.60
2929;DHT22;1474;51.460;7.150;2022-08-19T13:37:19;29.60;83.30
2929;DHT22;1474;51.460;7.150;2022-08-19T13:40:06;29.50;83.90
2929;DHT22;1474;51.460;7.150;2022-08-19T13:42:32;29.50;84.60
2929;DHT22;1474;51.460;7.150;2022-08-19T13:44:59;29.60;83.60
2929;DHT22;1474;51.460;7.150;2022-08-19T13:47:25;29.50;83.60
2929;DHT22;1474;51.460;7.150;2022-08-19T13:49:50;29.30;84.30
2929;DHT22;1474;51.460;7.150;2022-08-19T13:52:16;29.30;85.00
2929;DHT22;1474;51.460;7.150;2022-08-19T13:54:42;29.00;84.00
2929;DHT22;1474;51.460;7.150;2022-08-19T13:57:08;29.10;84.40
2929;DHT22;1474;51.460;7.150;2022-08-19T13:59:34;29.20;83.80
2929;DHT22;1474;51.460;7.150;2022-08-19T14:02:00;29.30;84.00
2929;DHT22;1474;51.460;7.150;2022-08-19T14:04:27;29.50;83.40
2929;DHT22;1474;51.460;7.150;2022-08-19T14:06:52;29.30;84.00
2929;DHT22;1474;51.460;7.150;2022-08-19T14:09:18;29.40;84.20
2929;DHT22;1474;51.460;7.150;2022-08-19T14:11:43;29.40;83.50
2929;DHT22;1474;51.460;7.150;2022-08-19T14:14:11;29.20;84.80
2929;DHT22;1474;51.460;7.150;2022-08-19T14:16:38;29.50;83.10
2929;DHT22;1474;51.460;7.150;2022-08-19T14:19:03;29.40;82.60
2929;DHT22;1474;51.460;7.150;2022-08-19T14:21:29;29.40;82.80
2929;DHT22;1474;51.460;7.150;2022-08-19T14:23:55;29.60;82.50
2929;DHT22;1474;51.460;7.150;2022-08-19T14:26:23;29.60;82.50
2929;DHT22;1474;51.460;7.150;2022-08-19T14:28:49;29.30;83.70
2929;DHT22;1474;51.460;7.150;2022-08-19T14:31:16;29.30;83.10
2929;DHT22;1474;51.460;7.150;2022-08-19T14:33:47;29.30;83.50
2929;DHT22;1474;51.460;7.150;2022-08-19T14:36:13;29.40;82.40
2929;DHT22;1474;51.460;7.150;2022-08-19T14:38:38;29.30;83.20
2929;DHT22;1474;51.460;7.150;2022-08-19T14:43:43;28.80;83.50
2929;DHT22;1474;51.460;7.150;2022-08-19T14:46:11;28.70;83.30
2929;DHT22;1474;51.460;7.150;2022-08-19T14:48:38;28.60;84.70
2929;DHT22;1474;51.460;7.150;2022-08-19T14:51:07;28.60;84.60
2929;DHT22;1474;51.460;7.150;2022-08-19T14:53:33;28.70;84.10
2929;DHT22;1474;51.460;7.150;2022-08-19T14:55:59;28.80;83.30
2929;DHT22;1474;51.460;7.150;2022-08-19T14:58:27;28.50;83.50
2929;DHT22;1474;51.460;7.150;2022-08-19T15:00:52;28.50;82.90
2929;DHT22;1474;51.460;7.150;2022-08-19T15:03:18;28.60;84.80
2929;DHT22;1474;51.460;7.150;2022-08-19T15:05:44;28.80;83.30
2929;DHT22;1474;51.460;7.150;2022-08-19T15:08:10;28.90;81.90
2929;DHT22;1474;51.460;7.150;2022-08-19T15:10:38;28.70;82.70
2929;DHT22;1474;51.460;7.150;2022-08-19T15:13:03;28.70;82.00
2929;DHT22;1474;51.460;7.150;2022-08-19T15:15:29;28.50;82.30
2929;DHT22;1474;51.460;7.150;2022-08-19T15:17:55;28.30;84.10
2929;DHT22;1474;51.460;7.150;2022-08-19T15:20:27;28.50;82.90
2929;DHT22;1474;51.460;7.150;2022-08-19T15:22:53;28.70;84.00
2929;DHT22;1474;51.460;7.150;2022-08-19T15:25:19;28.80;83.00
2929;DHT22;1474;51.460;7.150;2022-08-19T15:27:45;28.60;81.90
2929;DHT22;1474;51.460;7.150;2022-08-19T15:30:17;28.50;82.80
2929;DHT22;1474;51.460;7.150;2022-08-19T15:32:43;28.40;83.10
2929;DHT22;1474;51.460;7.150;2022-08-19T15:35:09;28.30;81.50
2929;DHT22;1474;51.460;7.150;2022-08-19T15:37:34;28.10;83.10
2929;DHT22;1474;51.460;7.150;2022-08-19T15:40:00;27.90;84.70
2929;DHT22;1474;51.460;7.150;2022-08-19T15:42:26;27.90;85.30
2929;DHT22;1474;51.460;7.150;2022-08-19T15:44:52;27.70;85.20
2929;DHT22;1474;51.460;7.150;2022-08-19T15:47:17;27.60;85.40
2929;DHT22;1474;51.460;7.150;2022-08-19T15:49:45;27.60;84.80
2929;DHT22;1474;51.460;7.150;2022-08-19T15:52:10;27.50;86.40
2929;DHT22;1474;51.460;7.150;2022-08-19T15:54:36;27.50;86.10
2929;DHT22;1474;51.460;7.150;2022-08-19T15:57:01;27.40;85.40
2929;DHT22;1474;51.460;7.150;2022-08-19T15:59:46;27.40;85.70
2929;DHT22;1474;51.460;7.150;2022-08-19T16:02:31;27.50;85.60
2929;DHT22;1474;51.460;7.150;2022-08-19T16:05:20;27.50;85.20
2929;DHT22;1474;51.460;7.150;2022-08-19T16:08:05;27.50;84.10
2929;DHT22;1474;51.460;7.150;2022-08-19T16:10:31;27.30;84.40
2929;DHT22;1474;51.460;7.150;2022-08-19T16:12:57;27.30;84.70
2929;DHT22;1474;51.460;7.150;2022-08-19T16:15:25;27.30;85.10
2929;DHT22;1474;51.460;7.150;2022-08-19T16:17:52;27.30;85.30
2929;DHT22;1474;51.460;7.150;2022-08-19T16:20:19;27.40;84.20